sensor_id;sensor_type;location;lat;lon;timestamp;temperature;humidity
52731;DHT22;38624;53.242;6.974;2023-07-02T00:01:47;15.50;99.90
52731;DHT22;38624;53.242;6.974;2023-07-02T00:04:13;15.50;99.90
52731;DHT22;38624;53.242;6.974;2023-07-02T00:06:45;15.40;99.90
52731;DHT22;38624;53.242;6.974;2023-07-02T00:09:11;15.30;99.90
52731;DHT22;38624;53.242;6.974;2023-07-02T00:11:41;15.20;99.90
52731;DHT22;38624;53.242;6.974;2023-07-02T00:14:08;15.10;99.90
52731;DHT22;38624;53.242;6.974;2023-07-02T00:16:37;15.00;99.90
52731;DHT22;38624;53.242;6.974;2023-07-02T00:19:03;15.00;99.90
52731;DHT22;38624;53.242;6.974;2023-07-02T00:21:29;14.90;99.90
52731;DHT22;38624;53.242;6.974;2023-07-02T00:23:55;14.90;99.90
52731;DHT22;38624;53.242;6.974;2023-07-02T00:26:24;14.80;99.90
52731;DHT22;38624;53.242;6.974;2023-07-02T00:28:53;14.70;99.90
52731;DHT22;38624;53.242;6.974;2023-07-02T00:31:19;14.70;99.90
52731;DHT22;38624;53.242;6.974;2023-07-02T00:33:45;14.60;99.90
52731;DHT22;38624;53.242;6.974;2023-07-02T00:36:10;14.60;99.90
52731;DHT22;38624;53.242;6.974;2023-07-02T00:38:41;14.50;99.90
52731;DHT22;38624;53.242;6.974;2023-07-02T00:41:08;14.50;99.90
52731;DHT22;38624;53.242;6.974;2023-07-02T00:43:34;14.50;99.90
52731;DHT22;38624;53.242;6.974;2023-07-02T00:46:00;14.50;99.90
52731;DHT22;38624;53.242;6.974;2023-07-02T00:48:26;14.40;99.90
52731;DHT22;38624;53.242;6.974;2023-07-02T00:50:52;14.30;99.90
52731;DHT22;38624;53.242;6.974;2023-07-02T00:53:18;14.30;99.90
52731;DHT22;38624;53.242;6.974;2023-07-02T00:55:43;14.20;99.90
52731;DHT22;38624;53.242;6.974;2023-07-02T00:58:09;14.20;99.90
52731;DHT22;38624;53.242;6.974;2023-07-02T01:00:35;14.10;99.90
52731;DHT22;38624;53.242;6.974;2023-07-02T01:03:01;14.00;99.90
52731;DHT22;38624;53.242;6.974;2023-07-02T01:05:28;14.10;99.90
52731;DHT22;38624;53.242;6.974;2023-07-02T01:08:02;14.10;99.90
52731;DHT22;38624;53.242;6.974;2023-07-02T01:10:27;14.10;99.90
52731;DHT22;38624;53.242;6.974;2023-07-02T01:12:55;14.00;99.90
52731;DHT22;38624;53.242;6.974;2023-07-02T01:15:20;14.00;99.90
52731;DHT22;38624;53.242;6.974;2023-07-02T01:17:47;14.00;99.90
52731;DHT22;38624;53.242;6.974;2023-07-02T01:20:14;14.00;99.90
52731;DHT22;38624;53.242;6.974;2023-07-02T01:22:40;14.10;99.90
52731;DHT22;38624;53.242;6.974;2023-07-02T01:25:07;14.10;99.90
52731;DHT22;38624;53.242;6.974;2023-07-02T01:27:34;14.10;99.90
52731;DHT22;38624;53.242;6.974;2023-07-02T01:30:01;14.10;99.90
52731;DHT22;38624;53.242;6.974;2023-07-02T01:32:27;14.00;99.90
52731;DHT22;38624;53.242;6.974;2023-07-02T01:34:53;14.00;99.90
52731;DHT22;38624;53.242;6.974;2023-07-02T01:37:19;14.00;99.90
52731;DHT22;38624;53.242;6.974;2023-07-02T01:39:45;14.00;99.90
52731;DHT22;38624;53.242;6.974;2023-07-02T01:42:15;14.00;99.90
52731;DHT22;38624;53.242;6.974;2023-07-02T01:44:45;14.10;99.90
52731;DHT22;38624;53.242;6.974;2023-07-02T01:47:12;14.10;99.90
52731;DHT22;38624;53.242;6.974;2023-07-02T01:49:38;14.00;99.90
52731;DHT22;38624;53.242;6.974;2023-07-02T01:52:04;13.90;99.90
52731;DHT22;38624;53.242;6.974;2023-07-02T01:54:31;13.90;99.90
52731;DHT22;38624;53.242;6.974;2023-07-02T01:57:00;13.80;99.90
52731;DHT22;38624;53.242;6.974;2023-07-02T01:59:26;13.80;99.90
52731;DHT22;38624;53.242;6.974;2023-07-02T02:01:52;13.70;99.90
52731;DHT22;38624;53.242;6.974;2023-07-02T02:04:17;13.70;99.90
52731;DHT22;38624;53.242;6.974;2023-07-02T02:06:44;13.60;99.90
52731;DHT22;38624;53.242;6.974;2023-07-02T02:09:09;13.60;99.90
52731;DHT22;38624;53.242;6.974;2023-07-02T02:11:39;13.50;99.90
52731;DHT22;38624;53.242;6.974;2023-07-02T02:14:05;13.50;99.90
52731;DHT22;38624;53.242;6.974;2023-07-02T02:16:30;13.40;99.90
52731;DHT22;38624;53.242;6.974;2023-07-02T02:18:56;13.40;99.90
52731;DHT22;38624;53.242;6.974;2023-07-02T02:21:22;13.40;99.90
52731;DHT22;38624;53.242;6.974;2023-07-02T02:23:48;13.40;99.90
52731;DHT22;38624;53.242;6.974;2023-07-02T02:26:14;13.30;99.90
52731;DHT22;38624;53.242;6.974;2023-07-02T02:28:41;13.30;99.90
52731;DHT22;38624;53.242;6.974;2023-07-02T02:31:07;13.30;99.90
52731;DHT22;38624;53.242;6.974;2023-07-02T02:33:32;13.20;99.90
52731;DHT22;38624;53.242;6.974;2023-07-02T02:35:58;13.20;99.90
52731;DHT22;38624;53.242;6.974;2023-07-02T02:38:24;13.10;99.90
52731;DHT22;38624;53.242;6.974;2023-07-02T02:40:50;13.10;99.90
52731;DHT22;38624;53.242;6.974;2023-07-02T02:43:15;13.10;99.90
52731;DHT22;38624;53.242;6.974;2023-07-02T02:45:44;13.10;99.90
52731;DHT22;38624;53.242;6.974;2023-07-02T02:48:09;13.00;99.90
52731;DHT22;38624;53.242;6.974;2023-07-02T02:50:36;13.00;99.90
52731;DHT22;38624;53.242;6.974;2023-07-02T02:53:02;13.00;99.90
52731;DHT22;38624;53.242;6.974;2023-07-02T02:55:28;13.00;99.90
52731;DHT22;38624;53.242;6.974;2023-07-02T02:57:53;13.00;99.90
52731;DHT22;38624;53.242;6.974;2023-07-02T03:00:19;12.90;99.90
52731;DHT22;38624;53.242;6.974;2023-07-02T03:02:45;12.80;99.90
52731;DHT22;38624;53.242;6.974;2023-07-02T03:05:10;12.80;99.90
52731;DHT22;38624;53.242;6.974;2023-07-02T03:07:38;12.80;99.90
52731;DHT22;38624;53.242;6.974;2023-07-02T03:10:04;12.80;99.90
52731;DHT22;38624;53.242;6.974;2023-07-02T03:12:30;12.80;99.90
52731;DHT22;38624;53.242;6.974;2023-07-02T03:14:55;12.70;99.90
52731;DHT22;38624;53.242;6.974;2023-07-02T03:17:21;12.70;99.90
52731;DHT22;38624;53.242;6.974;2023-07-02T03:19:47;12.60;99.90
52731;DHT22;38624;53.242;6.974;2023-07-02T03:22:13;12.60;99.90
52731;DHT22;38624;53.242;6.974;2023-07-02T03:24:39;12.70;99.90
52731;DHT22;38624;53.242;6.974;2023-07-02T03:27:05;12.60;99.90
52731;DHT22;38624;53.242;6.974;2023-07-02T03:29:31;12.70;99.90
52731;DHT22;38624;53.242;6.974;2023-07-02T03:31:57;12.60;99.90
52731;DHT22;38624;53.242;6.974;2023-07-02T03:34:23;12.60;99.90
52731;DHT22;38624;53.242;6.974;2023-07-02T03:36:49;12.60;99.90
52731;DHT22;38624;53.242;6.974;2023-07-02T03:39:15;12.60;99.90
52731;DHT22;38624;53.242;6.974;2023-07-02T03:41:43;12.60;99.90
52731;DHT22;38624;53.242;6.974;2023-07-02T03:44:09;12.70;99.90
52731;DHT22;38624;53.242;6.974;2023-07-02T03:46:35;12.70;99.90
52731;DHT22;38624;53.242;6.974;2023-07-02T03:49:01;12.70;99.90
52731;DHT22;38624;53.242;6.974;2023-07-02T03:51:28;12.70;99.90
52731;DHT22;38624;53.242;6.974;2023-07-02T03:53:54;12.80;99.90
52731;DHT22;38624;53.242;6.974;2023-07-02T03:56:20;12.80;99.90
52731;DHT22;38624;53.242;6.974;2023-07-02T03:58:45;12.80;99.90
52731;DHT22;38624;53.242;6.974;2023-07-02T04:01:11;12.90;99.90
52731;DHT22;38624;53.242;6.974;2023-07-02T04:03:37;12.90;99.90
52731;DHT22;38624;53.242;6.974;2023-07-02T04:06:03;12.90;99.90
52731;DHT22;38624;53.242;6.974;2023-07-02T04:08:31;13.00;99.90
52731;DHT22;38624;53.242;6.974;2023-07-02T04:10:57;13.10;99.90
52731;DHT22;38624;53.242;6.974;2023-07-02T04:13:22;13.10;99.90
52731;DHT22;38624;53.242;6.974;2023-07-02T04:15:48;13.20;99.90
52731;DHT22;38624;53.242;6.974;2023-07-02T04:18:14;13.20;99.90
52731;DHT22;38624;53.242;6.974;2023-07-02T04:20:40;13.30;99.90
52731;DHT22;38624;53.242;6.974;2023-07-02T04:23:06;13.30;99.90
52731;DHT22;38624;53.242;6.974;2023-07-02T04:25:32;13.40;99.90
52731;DHT22;38624;53.242;6.974;2023-07-02T04:27:57;13.50;99.90
52731;DHT22;38624;53.242;6.974;2023-07-02T04:30:24;13.60;99.90
52731;DHT22;38624;53.242;6.974;2023-07-02T04:32:53;13.60;99.90
52731;DHT22;38624;53.242;6.974;2023-07-02T04:35:19;13.80;99.90
52731;DHT22;38624;53.242;6.974;2023-07-02T04:37:45;13.90;99.90
52731;DHT22;38624;53.242;6.974;2023-07-02T04:40:11;14.00;99.90
52731;DHT22;38624;53.242;6.974;2023-07-02T04:42:37;14.10;99.90
52731;DHT22;38624;53.242;6.974;2023-07-02T04:45:07;14.10;99.90
52731;DHT22;38624;53.242;6.974;2023-07-02T04:47:34;14.30;99.90
52731;DHT22;38624;53.242;6.974;2023-07-02T04:50:00;14.30;99.90
52731;DHT22;38624;53.242;6.974;2023-07-02T04:52:26;14.30;99.90
52731;DHT22;38624;53.242;6.974;2023-07-02T04:54:52;14.30;99.90
52731;DHT22;38624;53.242;6.974;2023-07-02T04:57:18;14.20;99.90
52731;DHT22;38624;53.242;6.974;2023-07-02T04:59:44;14.20;99.90
52731;DHT22;38624;53.242;6.974;2023-07-02T05:02:10;14.20;99.90
52731;DHT22;38624;53.242;6.974;2023-07-02T05:04:36;14.10;99.90
52731;DHT22;38624;53.242;6.974;2023-07-02T05:07:05;14.20;99.90
52731;DHT22;38624;53.242;6.974;2023-07-02T05:09:31;14.30;99.90
52731;DHT22;38624;53.242;6.974;2023-07-02T05:11:58;14.30;99.90
52731;DHT22;38624;53.242;6.974;2023-07-02T05:14:23;14.30;99.90
52731;DHT22;38624;53.242;6.974;2023-07-02T05:16:49;14.40;99.90
52731;DHT22;38624;53.242;6.974;2023-07-02T05:19:15;14.40;99.90
52731;DHT22;38624;53.242;6.974;2023-07-02T05:21:41;14.40;99.90
52731;DHT22;38624;53.242;6.974;2023-07-02T05:24:08;14.40;99.90
52731;DHT22;38624;53.242;6.974;2023-07-02T05:26:34;14.50;99.90
52731;DHT22;38624;53.242;6.974;2023-07-02T05:29:00;14.50;99.90
52731;DHT22;38624;53.242;6.974;2023-07-02T05:31:26;14.60;99.90
52731;DHT22;38624;53.242;6.974;2023-07-02T05:33:52;14.70;99.90
52731;DHT22;38624;53.242;6.974;2023-07-02T05:36:19;14.70;99.90
52731;DHT22;38624;53.242;6.974;2023-07-02T05:38:44;14.80;99.90
52731;DHT22;38624;53.242;6.974;2023-07-02T05:41:10;14.90;99.90
52731;DHT22;38624;53.242;6.974;2023-07-02T05:43:36;15.10;99.90
52731;DHT22;38624;53.242;6.974;2023-07-02T05:46:01;15.40;99.90
52731;DHT22;38624;53.242;6.974;2023-07-02T05:48:27;15.70;99.90
52731;DHT22;38624;53.242;6.974;2023-07-02T05:50:53;15.80;99.90
52731;DHT22;38624;53.242;6.974;2023-07-02T05:53:19;15.90;99.90
52731;DHT22;38624;53.242;6.974;2023-07-02T05:55:45;15.90;99.90
52731;DHT22;38624;53.242;6.974;2023-07-02T05:58:11;15.80;99.90
52731;DHT22;38624;53.242;6.974;2023-07-02T06:00:36;15.80;99.90
52731;DHT22;38624;53.242;6.974;2023-07-02T06:03:03;15.80;99.90
52731;DHT22;38624;53.242;6.974;2023-07-02T06:05:28;16.00;99.90
52731;DHT22;38624;53.242;6.974;2023-07-02T06:07:54;16.20;99.90
52731;DHT22;38624;53.242;6.974;2023-07-02T06:10:20;16.40;99.90
52731;DHT22;38624;53.242;6.974;2023-07-02T06:12:46;16.40;99.90
52731;DHT22;38624;53.242;6.974;2023-07-02T06:15:11;16.30;99.90
52731;DHT22;38624;53.242;6.974;2023-07-02T06:17:37;16.30;99.90
52731;DHT22;38624;53.242;6.974;2023-07-02T06:20:03;16.30;99.90
52731;DHT22;38624;53.242;6.974;2023-07-02T06:22:33;16.30;99.90
52731;DHT22;38624;53.242;6.974;2023-07-02T06:24:59;16.20;99.90
52731;DHT22;38624;53.242;6.974;2023-07-02T06:27:25;16.30;99.90
52731;DHT22;38624;53.242;6.974;2023-07-02T06:29:50;16.30;99.90
52731;DHT22;38624;53.242;6.974;2023-07-02T06:32:17;16.30;99.90
52731;DHT22;38624;53.242;6.974;2023-07-02T06:34:42;16.50;99.90
52731;DHT22;38624;53.242;6.974;2023-07-02T06:37:08;16.50;99.90
52731;DHT22;38624;53.242;6.974;2023-07-02T06:39:34;16.50;99.90
52731;DHT22;38624;53.242;6.974;2023-07-02T06:41:59;16.40;99.90
52731;DHT22;38624;53.242;6.974;2023-07-02T06:44:25;16.40;99.90
52731;DHT22;38624;53.242;6.974;2023-07-02T06:46:51;16.40;99.90
52731;DHT22;38624;53.242;6.974;2023-07-02T06:49:17;16.50;99.90
52731;DHT22;38624;53.242;6.974;2023-07-02T06:51:42;16.50;99.90
52731;DHT22;38624;53.242;6.974;2023-07-02T06:54:08;16.70;99.90
52731;DHT22;38624;53.242;6.974;2023-07-02T06:56:34;16.70;99.90
52731;DHT22;38624;53.242;6.974;2023-07-02T06:59:00;16.80;99.90
52731;DHT22;38624;53.242;6.974;2023-07-02T07:01:26;16.90;99.90
52731;DHT22;38624;53.242;6.974;2023-07-02T07:03:52;17.00;99.90
52731;DHT22;38624;53.242;6.974;2023-07-02T07:06:18;17.10;99.90
52731;DHT22;38624;53.242;6.974;2023-07-02T07:08:43;17.40;99.90
52731;DHT22;38624;53.242;6.974;2023-07-02T07:11:09;17.50;99.90
52731;DHT22;38624;53.242;6.974;2023-07-02T07:13:35;17.60;99.90
52731;DHT22;38624;53.242;6.974;2023-07-02T07:16:01;17.70;99.90
52731;DHT22;38624;53.242;6.974;2023-07-02T07:18:26;17.70;99.90
52731;DHT22;38624;53.242;6.974;2023-07-02T07:20:52;17.70;99.90
52731;DHT22;38624;53.242;6.974;2023-07-02T07:23:18;17.60;99.90
52731;DHT22;38624;53.242;6.974;2023-07-02T07:25:44;17.40;99.90
52731;DHT22;38624;53.242;6.974;2023-07-02T07:28:10;17.50;99.90
52731;DHT22;38624;53.242;6.974;2023-07-02T07:30:41;17.50;99.90
52731;DHT22;38624;53.242;6.974;2023-07-02T07:33:07;17.40;99.90
52731;DHT22;38624;53.242;6.974;2023-07-02T07:35:33;17.40;99.90
52731;DHT22;38624;53.242;6.974;2023-07-02T07:37:58;17.50;99.90
52731;DHT22;38624;53.242;6.974;2023-07-02T07:40:24;17.70;99.90
52731;DHT22;38624;53.242;6.974;2023-07-02T07:42:50;17.70;99.90
52731;DHT22;38624;53.242;6.974;2023-07-02T07:45:16;17.70;99.90
52731;DHT22;38624;53.242;6.974;2023-07-02T07:47:41;17.70;99.90
52731;DHT22;38624;53.242;6.974;2023-07-02T07:50:08;17.70;99.90
52731;DHT22;38624;53.242;6.974;2023-07-02T07:52:42;17.70;99.90
52731;DHT22;38624;53.242;6.974;2023-07-02T07:55:08;17.60;99.90
52731;DHT22;38624;53.242;6.974;2023-07-02T07:57:35;17.60;99.90
52731;DHT22;38624;53.242;6.974;2023-07-02T08:00:02;17.40;99.90
52731;DHT22;38624;53.242;6.974;2023-07-02T08:02:29;17.30;99.90
52731;DHT22;38624;53.242;6.974;2023-07-02T08:04:55;17.50;99.90
52731;DHT22;38624;53.242;6.974;2023-07-02T08:07:20;18.00;99.90
52731;DHT22;38624;53.242;6.974;2023-07-02T08:09:47;18.00;99.90
52731;DHT22;38624;53.242;6.974;2023-07-02T08:12:13;18.30;99.90
52731;DHT22;38624;53.242;6.974;2023-07-02T08:14:39;18.40;99.90
52731;DHT22;38624;53.242;6.974;2023-07-02T08:17:05;18.40;96.70
52731;DHT22;38624;53.242;6.974;2023-07-02T08:19:31;18.30;96.30
52731;DHT22;38624;53.242;6.974;2023-07-02T08:21:56;18.20;97.60
52731;DHT22;38624;53.242;6.974;2023-07-02T08:24:22;18.20;99.10
52731;DHT22;38624;53.242;6.974;2023-07-02T08:26:48;18.10;99.10
52731;DHT22;38624;53.242;6.974;2023-07-02T08:29:15;18.10;98.90
52731;DHT22;38624;53.242;6.974;2023-07-02T08:31:40;18.20;98.70
52731;DHT22;38624;53.242;6.974;2023-07-02T08:34:07;18.40;98.50
52731;DHT22;38624;53.242;6.974;2023-07-02T08:36:32;18.50;97.80
52731;DHT22;38624;53.242;6.974;2023-07-02T08:38:58;18.60;96.40
52731;DHT22;38624;53.242;6.974;2023-07-02T08:41:24;18.40;97.10
52731;DHT22;38624;53.242;6.974;2023-07-02T08:43:50;18.30;97.50
52731;DHT22;38624;53.242;6.974;2023-07-02T08:46:17;18.20;98.10
52731;DHT22;38624;53.242;6.974;2023-07-02T08:48:43;17.90;99.90
52731;DHT22;38624;53.242;6.974;2023-07-02T08:51:09;17.70;99.90
52731;DHT22;38624;53.242;6.974;2023-07-02T08:53:35;17.60;99.90
52731;DHT22;38624;53.242;6.974;2023-07-02T08:56:03;17.60;99.90
52731;DHT22;38624;53.242;6.974;2023-07-02T08:58:28;17.50;99.90
52731;DHT22;38624;53.242;6.974;2023-07-02T09:01:24;17.50;99.90
52731;DHT22;38624;53.242;6.974;2023-07-02T09:03:49;17.70;99.90
52731;DHT22;38624;53.242;6.974;2023-07-02T09:06:17;17.60;99.90
52731;DHT22;38624;53.242;6.974;2023-07-02T09:08:43;17.80;99.90
52731;DHT22;38624;53.242;6.974;2023-07-02T09:11:16;17.80;99.90
52731;DHT22;38624;53.242;6.974;2023-07-02T09:13:49;17.90;99.90
52731;DHT22;38624;53.242;6.974;2023-07-02T09:16:30;17.90;99.90
52731;DHT22;38624;53.242;6.974;2023-07-02T09:21:25;18.10;99.90
52731;DHT22;38624;53.242;6.974;2023-07-02T09:23:50;18.20;99.90
52731;DHT22;38624;53.242;6.974;2023-07-02T09:26:23;18.30;99.90
52731;DHT22;38624;53.242;6.974;2023-07-02T09:28:49;18.50;99.90
52731;DHT22;38624;53.242;6.974;2023-07-02T09:31:14;18.40;99.90
52731;DHT22;38624;53.242;6.974;2023-07-02T09:33:40;18.30;99.90
52731;DHT22;38624;53.242;6.974;2023-07-02T09:36:06;18.00;99.90
52731;DHT22;38624;53.242;6.974;2023-07-02T09:38:32;17.80;99.90
52731;DHT22;38624;53.242;6.974;2023-07-02T09:40:58;17.80;99.90
52731;DHT22;38624;53.242;6.974;2023-07-02T09:43:25;17.80;99.90
52731;DHT22;38624;53.242;6.974;2023-07-02T09:45:54;17.80;99.90
52731;DHT22;38624;53.242;6.974;2023-07-02T09:48:24;17.70;99.90
52731;DHT22;38624;53.242;6.974;2023-07-02T09:50:51;17.50;99.90
52731;DHT22;38624;53.242;6.974;2023-07-02T09:53:17;17.30;99.90
52731;DHT22;38624;53.242;6.974;2023-07-02T09:55:43;17.20;99.90
52731;DHT22;38624;53.242;6.974;2023-07-02T09:58:09;17.40;99.90
52731;DHT22;38624;53.242;6.974;2023-07-02T10:00:36;17.80;99.90
52731;DHT22;38624;53.242;6.974;2023-07-02T10:03:01;17.90;99.90
52731;DHT22;38624;53.242;6.974;2023-07-02T10:05:32;18.20;99.90
52731;DHT22;38624;53.242;6.974;2023-07-02T10:08:19;18.50;99.80
52731;DHT22;38624;53.242;6.974;2023-07-02T10:10:47;18.70;98.10
52731;DHT22;38624;53.242;6.974;2023-07-02T10:13:13;18.70;96.80
52731;DHT22;38624;53.242;6.974;2023-07-02T10:15:39;18.80;97.20
52731;DHT22;38624;53.242;6.974;2023-07-02T10:18:06;18.90;95.80
52731;DHT22;38624;53.242;6.974;2023-07-02T10:20:36;19.00;95.30
52731;DHT22;38624;53.242;6.974;2023-07-02T10:23:04;19.00;95.40
52731;DHT22;38624;53.242;6.974;2023-07-02T10:25:35;19.00;93.60
52731;DHT22;38624;53.242;6.974;2023-07-02T10:28:17;19.40;91.70
52731;DHT22;38624;53.242;6.974;2023-07-02T10:30:43;19.50;91.10
52731;DHT22;38624;53.242;6.974;2023-07-02T10:33:13;19.60;90.30
52731;DHT22;38624;53.242;6.974;2023-07-02T10:35:40;19.50;90.10
52731;DHT22;38624;53.242;6.974;2023-07-02T10:38:26;19.40;89.70
52731;DHT22;38624;53.242;6.974;2023-07-02T10:40:56;19.00;89.90
52731;DHT22;38624;53.242;6.974;2023-07-02T10:43:30;18.90;90.60
52731;DHT22;38624;53.242;6.974;2023-07-02T10:45:56;18.80;91.30
52731;DHT22;38624;53.242;6.974;2023-07-02T10:48:22;18.80;91.90
52731;DHT22;38624;53.242;6.974;2023-07-02T10:50:48;18.80;92.20
52731;DHT22;38624;53.242;6.974;2023-07-02T10:53:17;18.70;92.90
52731;DHT22;38624;53.242;6.974;2023-07-02T10:55:44;18.80;92.60
52731;DHT22;38624;53.242;6.974;2023-07-02T10:58:11;18.60;92.00
52731;DHT22;38624;53.242;6.974;2023-07-02T11:00:50;18.80;92.20
52731;DHT22;38624;53.242;6.974;2023-07-02T11:03:19;18.90;93.10
52731;DHT22;38624;53.242;6.974;2023-07-02T11:05:45;19.10;93.10
52731;DHT22;38624;53.242;6.974;2023-07-02T11:08:11;19.60;92.50
52731;DHT22;38624;53.242;6.974;2023-07-02T11:10:37;19.60;90.20
52731;DHT22;38624;53.242;6.974;2023-07-02T11:13:16;19.70;90.50
52731;DHT22;38624;53.242;6.974;2023-07-02T11:15:43;19.60;90.30
52731;DHT22;38624;53.242;6.974;2023-07-02T11:18:11;19.50;89.10
52731;DHT22;38624;53.242;6.974;2023-07-02T11:20:38;19.70;90.00
52731;DHT22;38624;53.242;6.974;2023-07-02T11:23:04;20.00;90.70
52731;DHT22;38624;53.242;6.974;2023-07-02T11:25:30;20.20;90.70
52731;DHT22;38624;53.242;6.974;2023-07-02T11:28:03;20.00;87.70
52731;DHT22;38624;53.242;6.974;2023-07-02T11:30:28;19.70;89.50
52731;DHT22;38624;53.242;6.974;2023-07-02T11:32:55;19.30;89.10
52731;DHT22;38624;53.242;6.974;2023-07-02T11:35:21;19.30;90.30
52731;DHT22;38624;53.242;6.974;2023-07-02T11:37:48;19.40;90.50
52731;DHT22;38624;53.242;6.974;2023-07-02T11:40:14;19.50;90.00
52731;DHT22;38624;53.242;6.974;2023-07-02T11:42:42;19.90;90.00
52731;DHT22;38624;53.242;6.974;2023-07-02T11:45:09;20.20;90.20
52731;DHT22;38624;53.242;6.974;2023-07-02T11:47:35;20.30;90.30
52731;DHT22;38624;53.242;6.974;2023-07-02T11:50:00;20.60;90.30
52731;DHT22;38624;53.242;6.974;2023-07-02T11:52:26;20.40;88.80
52731;DHT22;38624;53.242;6.974;2023-07-02T11:54:52;20.40;88.00
52731;DHT22;38624;53.242;6.974;2023-07-02T11:57:18;20.30;86.00
52731;DHT22;38624;53.242;6.974;2023-07-02T11:59:43;20.30;86.30
52731;DHT22;38624;53.242;6.974;2023-07-02T12:02:09;20.10;85.20
52731;DHT22;38624;53.242;6.974;2023-07-02T12:04:35;20.20;84.20
52731;DHT22;38624;53.242;6.974;2023-07-02T12:07:02;20.20;84.40
52731;DHT22;38624;53.242;6.974;2023-07-02T12:09:29;20.20;84.90
52731;DHT22;38624;53.242;6.974;2023-07-02T12:11:55;20.00;84.00
52731;DHT22;38624;53.242;6.974;2023-07-02T12:14:20;20.40;84.10
52731;DHT22;38624;53.242;6.974;2023-07-02T12:16:46;20.50;83.20
52731;DHT22;38624;53.242;6.974;2023-07-02T12:19:12;20.30;82.10
52731;DHT22;38624;53.242;6.974;2023-07-02T12:21:37;20.40;82.70
52731;DHT22;38624;53.242;6.974;2023-07-02T12:24:03;20.10;81.70
52731;DHT22;38624;53.242;6.974;2023-07-02T12:26:37;20.10;82.90
52731;DHT22;38624;53.242;6.974;2023-07-02T12:29:03;19.80;82.80
52731;DHT22;38624;53.242;6.974;2023-07-02T12:31:30;19.60;82.60
52731;DHT22;38624;53.242;6.974;2023-07-02T12:33:55;19.90;83.30
52731;DHT22;38624;53.242;6.974;2023-07-02T12:36:21;20.00;85.10
52731;DHT22;38624;53.242;6.974;2023-07-02T12:38:47;19.80;85.50
52731;DHT22;38624;53.242;6.974;2023-07-02T12:41:12;20.10;84.40
52731;DHT22;38624;53.242;6.974;2023-07-02T12:43:38;20.20;84.90
52731;DHT22;38624;53.242;6.974;2023-07-02T12:46:04;20.00;84.50
52731;DHT22;38624;53.242;6.974;2023-07-02T12:48:29;20.00;83.50
52731;DHT22;38624;53.242;6.974;2023-07-02T12:50:56;19.80;82.70
52731;DHT22;38624;53.242;6.974;2023-07-02T12:53:23;19.70;84.20
52731;DHT22;38624;53.242;6.974;2023-07-02T12:55:49;19.80;85.30
52731;DHT22;38624;53.242;6.974;2023-07-02T12:58:15;19.60;84.20
52731;DHT22;38624;53.242;6.974;2023-07-02T13:00:41;19.40;85.90
52731;DHT22;38624;53.242;6.974;2023-07-02T13:03:10;19.60;86.70
52731;DHT22;38624;53.242;6.974;2023-07-02T13:05:36;20.00;85.90
52731;DHT22;38624;53.242;6.974;2023-07-02T13:08:02;20.00;84.90
52731;DHT22;38624;53.242;6.974;2023-07-02T13:10:29;19.60;83.60
52731;DHT22;38624;53.242;6.974;2023-07-02T13:12:55;19.60;83.60
52731;DHT22;38624;53.242;6.974;2023-07-02T13:15:21;19.50;83.70
52731;DHT22;38624;53.242;6.974;2023-07-02T13:17:46;19.60;84.40
52731;DHT22;38624;53.242;6.974;2023-07-02T13:20:12;19.60;84.20
52731;DHT22;38624;53.242;6.974;2023-07-02T13:22:38;19.70;83.90
52731;DHT22;38624;53.242;6.974;2023-07-02T13:25:07;19.60;84.70
52731;DHT22;38624;53.242;6.974;2023-07-02T13:27:33;19.70;85.80
52731;DHT22;38624;53.242;6.974;2023-07-02T13:29:59;19.70;85.30
52731;DHT22;38624;53.242;6.974;2023-07-02T13:32:25;19.60;84.40
52731;DHT22;38624;53.242;6.974;2023-07-02T13:34:51;19.60;84.20
52731;DHT22;38624;53.242;6.974;2023-07-02T13:37:17;19.70;85.90
52731;DHT22;38624;53.242;6.974;2023-07-02T13:39:44;19.90;85.70
52731;DHT22;38624;53.242;6.974;2023-07-02T13:42:10;20.10;83.90
52731;DHT22;38624;53.242;6.974;2023-07-02T13:44:35;19.70;80.20
52731;DHT22;38624;53.242;6.974;2023-07-02T13:47:01;19.70;81.80
52731;DHT22;38624;53.242;6.974;2023-07-02T13:49:27;19.70;82.90
52731;DHT22;38624;53.242;6.974;2023-07-02T13:51:53;19.40;83.00
52731;DHT22;38624;53.242;6.974;2023-07-02T13:54:19;19.50;83.70
52731;DHT22;38624;53.242;6.974;2023-07-02T13:56:46;19.60;84.10
52731;DHT22;38624;53.242;6.974;2023-07-02T13:59:12;19.80;82.20
52731;DHT22;38624;53.242;6.974;2023-07-02T14:01:38;20.00;80.80
52731;DHT22;38624;53.242;6.974;2023-07-02T14:04:04;20.00;80.30
52731;DHT22;38624;53.242;6.974;2023-07-02T14:06:30;19.90;80.10
52731;DHT22;38624;53.242;6.974;2023-07-02T14:08:56;19.60;81.40
52731;DHT22;38624;53.242;6.974;2023-07-02T14:11:23;19.50;81.10
52731;DHT22;38624;53.242;6.974;2023-07-02T14:13:49;19.60;82.20
52731;DHT22;38624;53.242;6.974;2023-07-02T14:16:15;19.70;81.00
52731;DHT22;38624;53.242;6.974;2023-07-02T14:18:40;19.70;80.90
52731;DHT22;38624;53.242;6.974;2023-07-02T14:21:06;19.60;82.40
52731;DHT22;38624;53.242;6.974;2023-07-02T14:23:32;19.40;83.70
52731;DHT22;38624;53.242;6.974;2023-07-02T14:25:58;19.30;84.00
52731;DHT22;38624;53.242;6.974;2023-07-02T14:28:25;19.20;83.90
52731;DHT22;38624;53.242;6.974;2023-07-02T14:30:59;19.10;84.00
52731;DHT22;38624;53.242;6.974;2023-07-02T14:33:26;19.20;81.30
52731;DHT22;38624;53.242;6.974;2023-07-02T14:35:53;19.30;82.00
52731;DHT22;38624;53.242;6.974;2023-07-02T14:38:19;19.40;82.80
52731;DHT22;38624;53.242;6.974;2023-07-02T14:40:45;19.40;82.90
52731;DHT22;38624;53.242;6.974;2023-07-02T14:43:10;19.10;84.30
52731;DHT22;38624;53.242;6.974;2023-07-02T14:45:48;19.00;84.40
52731;DHT22;38624;53.242;6.974;2023-07-02T14:48:15;18.70;85.50
52731;DHT22;38624;53.242;6.974;2023-07-02T14:50:51;18.70;86.20
52731;DHT22;38624;53.242;6.974;2023-07-02T14:53:17;18.70;85.20
52731;DHT22;38624;53.242;6.974;2023-07-02T14:55:43;18.80;85.30
52731;DHT22;38624;53.242;6.974;2023-07-02T14:58:10;18.70;85.70
52731;DHT22;38624;53.242;6.974;2023-07-02T15:00:43;18.70;86.50
52731;DHT22;38624;53.242;6.974;2023-07-02T15:03:09;18.50;86.60
52731;DHT22;38624;53.242;6.974;2023-07-02T15:05:35;18.40;87.50
52731;DHT22;38624;53.242;6.974;2023-07-02T15:08:00;18.30;87.90
52731;DHT22;38624;53.242;6.974;2023-07-02T15:10:26;18.30;88.90
52731;DHT22;38624;53.242;6.974;2023-07-02T15:12:52;18.20;89.40
52731;DHT22;38624;53.242;6.974;2023-07-02T15:15:17;18.40;89.10
52731;DHT22;38624;53.242;6.974;2023-07-02T15:17:43;19.10;87.90
52731;DHT22;38624;53.242;6.974;2023-07-02T15:20:09;20.00;85.60
52731;DHT22;38624;53.242;6.974;2023-07-02T15:22:35;20.00;84.90
52731;DHT22;38624;53.242;6.974;2023-07-02T15:25:00;19.90;85.40
52731;DHT22;38624;53.242;6.974;2023-07-02T15:27:26;19.40;84.70
52731;DHT22;38624;53.242;6.974;2023-07-02T15:29:52;19.40;85.20